Terminal Aerodrome Forecast
Issued by NWS

Home | Current Version | Previous Version | Text Only | Print | Product List | Glossary On
Versions: 1 2 3 4 5 6 7 8 9 10 11 12 13
000
FTAK31 PANC 230535
TAFAAQ
TAF
PAAQ 230535Z 2306/2406 VRB03KT P6SM SCT070
     FM231200 35005KT P6SM BKN070
     FM240000 14009KT P6SM VCSH OVC070=

USA.gov is the U.S. government's official web portal to all federal, state and local government web resources and services.